Time;durP1;ratioP1;P1;durP2;ratioP2;P2;SDS_P1;SDS_P2;PMS_P1;PMS_P2;Temp;Humidity;BMP_temperature;BMP_pressure;BME280_temperature;BME280_humidity;BME280_pressure;Samples;Min_cycle;Max_cycle;Signal;HPM_P1;HPM_P2
2022/12/04 00:00:08;;;;;;;16.53;13.37;;;5.10;52.70;;;;;;20790;6830;119492;-73
2022/12/04 00:02:34;;;;;;;20.67;15.17;;;4.80;53.20;;;;;;20783;6830;120608;-73
2022/12/04 00:05:00;;;;;;;17.63;13.83;;;4.60;53.80;;;;;;20794;6830;117519;-73
2022/12/04 00:07:25;;;;;;;19.37;13.80;;;4.50;54.30;;;;;;20789;6830;117692;-73
2022/12/04 00:09:51;;;;;;;20.00;14.33;;;4.30;54.60;;;;;;20795;6830;117157;-73
2022/12/04 00:12:16;;;;;;;18.45;13.00;;;4.20;54.80;;;;;;20754;6830;119045;-73
2022/12/04 00:14:43;;;;;;;19.40;13.83;;;4.10;55.40;;;;;;20792;6830;118817;-74
2022/12/04 00:17:08;;;;;;;21.00;17.67;;;4.10;55.40;;;;;;20582;6830;280415;-73
2022/12/04 00:19:34;;;;;;;17.92;14.63;;;4.30;55.20;;;;;;20792;6830;121687;-73
2022/12/04 00:22:00;;;;;;;19.77;13.70;;;4.40;55.10;;;;;;20773;6830;131621;-73
2022/12/04 00:24:26;;;;;;;17.93;12.77;;;4.30;55.00;;;;;;20780;6830;117472;-73
2022/12/04 00:26:51;;;;;;;23.10;18.47;;;4.30;55.40;;;;;;20556;6830;294649;-73
2022/12/04 00:29:17;;;;;;;20.33;15.35;;;4.50;55.10;;;;;;20766;6830;118006;-73
2022/12/04 00:31:43;;;;;;;22.23;18.10;;;4.70;54.30;;;;;;20555;6830;337280;-73
2022/12/04 00:34:09;;;;;;;22.83;18.73;;;4.70;54.30;;;;;;20560;6830;278647;-74
2022/12/04 00:36:34;;;;;;;19.10;15.70;;;5.10;53.80;;;;;;20788;6830;118520;-74
2022/12/04 00:39:00;;;;;;;22.10;15.63;;;5.00;53.70;;;;;;20792;6830;117838;-74
2022/12/04 00:41:25;;;;;;;19.20;14.00;;;4.90;54.10;;;;;;20799;6830;117402;-74
2022/12/04 00:43:51;;;;;;;19.07;14.93;;;4.60;54.40;;;;;;20799;6830;117736;-74
2022/12/04 00:46:17;;;;;;;20.62;14.13;;;4.50;54.80;;;;;;20786;6830;117788;-74
2022/12/04 00:48:42;;;;;;;18.87;13.83;;;4.40;55.20;;;;;;20798;6830;119460;-73
2022/12/04 00:51:08;;;;;;;18.47;12.80;;;4.30;55.50;;;;;;20796;6830;118423;-75
2022/12/04 00:53:34;;;;;;;22.10;14.75;;;4.10;56.50;;;;;;20787;6830;118567;-75
2022/12/04 00:56:03;;;;;;;23.73;14.87;;;4.10;55.90;;;;;;20775;6828;118496;-75
2022/12/04 00:58:28;;;;;;;20.13;14.50;;;4.10;56.10;;;;;;20770;6829;119077;-74
2022/12/04 01:00:54;;;;;;;20.00;13.88;;;4.00;56.30;;;;;;20788;6830;117340;-74
2022/12/04 01:03:20;;;;;;;20.23;14.53;;;4.00;56.40;;;;;;20769;6830;118299;-74
2022/12/04 01:05:46;;;;;;;22.60;18.73;;;4.00;56.40;;;;;;20582;6830;308191;-74
2022/12/04 01:08:11;;;;;;;18.92;14.77;;;4.20;56.00;;;;;;20781;6830;117332;-74
2022/12/04 01:10:38;;;;;;;21.05;14.98;;;4.30;55.60;;;;;;20795;6830;117637;-74
2022/12/04 01:13:03;;;;;;;20.53;14.53;;;4.20;55.70;;;;;;20792;6830;119443;-74
2022/12/04 01:15:29;;;;;;;19.93;14.47;;;4.10;55.90;;;;;;20794;6830;119383;-74
2022/12/04 01:17:54;;;;;;;22.93;18.80;;;4.10;56.30;;;;;;20583;6830;278919;-74
2022/12/04 01:20:20;;;;;;;19.33;14.83;;;4.30;56.30;;;;;;20779;6830;119822;-74
2022/12/04 01:22:45;;;;;;;24.13;19.90;;;4.50;56.10;;;;;;20578;6830;307671;-74
2022/12/04 01:25:11;;;;;;;24.87;20.73;;;4.70;56.20;;;;;;20585;6830;337122;-74
2022/12/04 01:27:36;;;;;;;24.13;20.07;;;5.00;54.40;;;;;;20584;6830;280614;-74
2022/12/04 01:30:02;;;;;;;21.85;16.65;;;5.40;53.70;;;;;;20765;6830;117941;-75
2022/12/04 01:32:28;;;;;;;24.50;20.42;;;5.30;53.60;;;;;;20579;6830;307215;-74
2022/12/04 01:34:53;;;;;;;22.00;16.70;;;5.30;53.60;;;;;;20805;6830;117525;-74
2022/12/04 01:37:19;;;;;;;22.60;16.97;;;5.30;53.80;;;;;;20808;6830;117585;-74
2022/12/04 01:39:45;;;;;;;26.52;20.80;;;5.10;54.30;;;;;;20594;6830;285028;-74
2022/12/04 01:42:11;;;;;;;23.75;17.35;;;5.10;53.90;;;;;;20773;6830;119428;-74
2022/12/04 01:44:36;;;;;;;22.40;16.73;;;5.10;53.90;;;;;;20795;6830;117849;-74
2022/12/04 01:47:02;;;;;;;26.98;21.73;;;4.90;54.20;;;;;;20567;6830;278921;-74
2022/12/04 01:49:29;;;;;;;25.47;17.60;;;5.00;54.20;;;;;;20798;6830;117371;-74
2022/12/04 01:51:54;;;;;;;22.90;17.33;;;5.00;54.00;;;;;;20775;6830;120681;-74
2022/12/04 01:54:27;;;;;;;25.00;21.13;;;4.90;54.70;;;;;;20485;6845;303725;-74
2022/12/04 01:56:53;;;;;;;24.77;18.43;;;4.90;55.20;;;;;;20684;6860;117529;-74
2022/12/04 01:59:18;;;;;;;23.40;17.77;;;4.90;54.60;;;;;;20704;6860;117422;-74
2022/12/04 02:02:04;;;;;;;27.42;21.73;;;4.80;54.80;;;;;;20494;6860;278578;-74
2022/12/04 02:04:29;;;;;;;24.37;19.30;;;4.90;54.80;;;;;;20699;6860;120045;-74
2022/12/04 02:06:55;;;;;;;28.23;18.87;;;4.90;54.90;;;;;;20689;6858;117911;-74
2022/12/04 02:09:22;;;;;;;26.92;22.60;;;4.80;55.10;;;;;;20487;6859;278980;-74
2022/12/04 02:12:16;;;;;;;23.50;19.23;;;4.90;55.00;;;;;;20697;6860;117682;-74
2022/12/04 02:14:48;;;;;;;27.17;22.75;;;4.90;54.90;;;;;;20533;6845;307736;-75
2022/12/04 02:17:27;;;;;;;27.40;22.85;;;5.10;54.50;;;;;;20518;6845;279113;-74
2022/12/04 02:19:59;;;;;;;27.23;23.07;;;5.40;53.60;;;;;;20449;6860;337714;-74
2022/12/04 02:22:27;;;;;;;23.53;18.60;;;5.70;53.00;;;;;;20675;6860;121434;-74
2022/12/04 02:24:56;;;;;;;25.37;22.43;;;5.50;53.00;;;;;;20463;6860;308203;-74
2022/12/04 02:27:39;;;;;;;25.77;22.42;;;5.70;52.70;;;;;;20480;6860;310172;-74
2022/12/04 02:30:08;;;;;;;22.67;18.23;;;5.70;52.70;;;;;;20675;6860;118059;-74
2022/12/04 02:32:44;;;;;;;26.30;22.20;;;5.50;52.80;;;;;;20467;6860;308255;-74
2022/12/04 02:35:10;;;;;;;24.10;18.77;;;5.40;53.00;;;;;;20687;6860;117269;-75
2022/12/04 02:37:39;;;;;;;20.97;17.07;;;5.30;52.90;;;;;;20685;6860;117417;-74
2022/12/04 02:40:04;;;;;;;24.83;21.23;;;5.10;53.50;;;;;;20367;6860;280558;-73
2022/12/04 02:42:40;;;;;;;24.70;21.97;;;5.10;53.50;;;;;;20297;6860;311251;-73
2022/12/04 02:45:06;;;;;;;23.85;20.85;;;5.40;53.00;;;;;;20468;6860;308697;-74
2022/12/04 02:47:31;;;;;;;26.37;22.03;;;5.60;53.30;;;;;;20451;6860;281374;-74
2022/12/04 02:50:00;;;;;;;21.60;17.10;;;5.80;52.10;;;;;;20660;6860;118690;-75
2022/12/04 02:52:32;;;;;;;21.67;17.47;;;5.60;52.30;;;;;;20684;6860;119491;-74
2022/12/04 02:54:57;;;;;;;22.23;17.33;;;5.20;53.00;;;;;;20686;6860;117437;-73
2022/12/04 02:57:23;;;;;;;23.30;16.43;;;5.00;53.80;;;;;;20692;6860;121448;-74
2022/12/04 02:59:49;;;;;;;23.30;15.90;;;4.70;54.20;;;;;;20689;6860;117510;-74
2022/12/04 03:02:14;;;;;;;22.37;16.03;;;4.60;54.70;;;;;;20677;6860;117765;-74
2022/12/04 03:04:40;;;;;;;19.90;15.63;;;4.50;55.00;;;;;;20686;6860;121173;-73
2022/12/04 03:07:05;;;;;;;20.87;14.97;;;4.40;55.30;;;;;;20694;6860;118540;-74
2022/12/04 03:09:32;;;;;;;24.07;20.17;;;4.50;55.60;;;;;;20453;6860;333498;-74
2022/12/04 03:11:57;;;;;;;22.00;16.80;;;4.50;55.60;;;;;;20653;6860;117419;-74
2022/12/04 03:14:27;;;;;;;20.40;14.90;;;4.50;55.40;;;;;;20663;6860;117996;-74
2022/12/04 03:16:52;;;;;;;19.07;14.97;;;4.50;55.40;;;;;;20675;6860;118458;-74
2022/12/04 03:19:18;;;;;;;22.65;20.20;;;4.40;55.80;;;;;;20463;6859;307749;-74
2022/12/04 03:21:43;;;;;;;21.03;17.07;;;4.60;55.60;;;;;;20679;6859;117562;-74
2022/12/04 03:24:12;;;;;;;24.70;21.87;;;4.70;55.30;;;;;;20450;6860;338184;-74
2022/12/04 03:26:37;;;;;;;23.30;17.23;;;4.80;54.70;;;;;;20719;6845;120311;-74
2022/12/04 03:29:13;;;;;;;20.23;16.07;;;4.90;54.70;;;;;;20686;6860;117384;-74
2022/12/04 03:31:41;;;;;;;25.20;20.67;;;4.70;54.50;;;;;;20471;6860;308170;-74
2022/12/04 03:34:08;;;;;;;19.57;16.47;;;4.90;54.60;;;;;;20710;6845;117380;-74
2022/12/04 03:36:33;;;;;;;20.00;16.27;;;4.90;54.70;;;;;;20672;6860;117639;-74
2022/12/04 03:38:59;;;;;;;23.33;20.80;;;4.70;54.80;;;;;;20475;6860;284190;-74
2022/12/04 03:42:01;;;;;;;21.10;17.17;;;4.80;54.70;;;;;;20676;6860;117504;-74
2022/12/04 03:44:43;;;;;;;18.70;15.40;;;4.80;54.60;;;;;;20686;6860;119021;-74
2022/12/04 03:47:15;;;;;;;20.77;16.20;;;4.60;55.00;;;;;;20683;6860;118751;-74
2022/12/04 03:49:50;;;;;;;22.60;19.57;;;4.50;55.50;;;;;;20438;6860;309010;-74
2022/12/04 03:52:15;;;;;;;20.27;16.07;;;4.70;55.20;;;;;;20648;6860;119345;-74
2022/12/04 03:54:51;;;;;;;18.33;14.53;;;4.70;55.00;;;;;;20672;6860;119731;-74
2022/12/04 03:57:16;;;;;;;19.63;15.03;;;4.60;55.30;;;;;;20661;6860;117804;-74
2022/12/04 03:59:42;;;;;;;23.62;20.25;;;4.40;55.60;;;;;;20447;6860;308556;-74
2022/12/04 04:02:07;;;;;;;23.17;19.98;;;4.60;55.60;;;;;;20452;6860;279585;-74
2022/12/04 04:04:33;;;;;;;18.23;14.83;;;5.00;54.70;;;;;;20685;6860;117555;-74
2022/12/04 04:07:01;;;;;;;17.83;14.73;;;5.00;54.50;;;;;;20694;6860;117511;-74
2022/12/04 04:09:27;;;;;;;24.10;19.40;;;4.80;54.80;;;;;;20685;6860;118784;-74
2022/12/04 04:12:03;;;;;;;21.92;19.27;;;4.70;55.00;;;;;;20467;6860;312732;-74
2022/12/04 04:25:46;;;;;;;18.47;14.60;;;5.10;54.80;;;;;;20735;6845;117490;-74
2022/12/04 04:28:24;;;;;;;18.65;16.65;;;5.00;54.50;;;;;;20523;6845;278595;-74
2022/12/04 04:30:50;;;;;;;19.58;17.48;;;5.10;54.40;;;;;;19729;6844;337147;-74
2022/12/04 04:33:16;;;;;;;16.40;13.80;;;5.30;53.50;;;;;;20703;6859;123430;-74
2022/12/04 04:35:48;;;;;;;16.27;13.17;;;5.30;53.50;;;;;;20694;6860;120783;-74
2022/12/04 04:38:13;;;;;;;19.80;17.00;;;5.10;54.10;;;;;;20445;6860;308847;-74
2022/12/04 04:40:45;;;;;;;19.27;17.12;;;5.10;54.00;;;;;;20462;6860;279905;-74
2022/12/04 04:43:17;;;;;;;15.97;13.77;;;5.40;53.50;;;;;;20672;6860;120673;-74
2022/12/04 04:45:46;;;;;;;18.63;16.37;;;5.30;53.60;;;;;;20520;6845;278111;-74
2022/12/04 04:48:18;;;;;;;18.85;16.85;;;5.30;53.30;;;;;;20446;6860;307808;-73
2022/12/04 04:50:44;;;;;;;16.77;14.30;;;5.60;52.80;;;;;;20667;6860;119968;-73
2022/12/04 04:53:12;;;;;;;17.83;15.93;;;5.40;52.90;;;;;;20486;6860;280999;-73
2022/12/04 04:55:38;;;;;;;16.77;13.67;;;5.40;53.10;;;;;;20677;6860;117367;-73
2022/12/04 04:58:16;;;;;;;18.95;16.95;;;5.40;53.60;;;;;;20459;6860;278979;-73
2022/12/04 05:00:51;;;;;;;15.77;13.20;;;5.40;53.30;;;;;;20675;6860;118626;-72
2022/12/04 05:03:17;;;;;;;15.77;12.63;;;5.30;53.30;;;;;;20245;6860;118113;-73
2022/12/04 05:05:42;;;;;;;15.13;11.80;;;5.00;53.70;;;;;;20695;6860;117356;-73
2022/12/04 05:08:08;;;;;;;18.45;16.17;;;4.80;54.10;;;;;;20470;6860;279190;-73
2022/12/04 05:10:34;;;;;;;18.12;16.23;;;4.90;54.10;;;;;;20489;6860;308657;-73
2022/12/04 05:12:59;;;;;;;16.33;13.23;;;5.20;53.70;;;;;;20692;6860;117875;-73
2022/12/04 05:15:25;;;;;;;19.03;15.93;;;5.20;53.60;;;;;;20479;6860;337300;-73
2022/12/04 05:17:50;;;;;;;18.30;16.33;;;5.20;53.50;;;;;;20479;6860;341284;-73
2022/12/04 05:20:16;;;;;;;18.20;16.30;;;5.50;53.20;;;;;;20449;6860;278671;-73
2022/12/04 05:22:42;;;;;;;20.77;17.13;;;5.70;52.70;;;;;;20486;6860;310119;-73
2022/12/04 05:25:08;;;;;;;20.03;17.87;;;5.90;51.90;;;;;;20532;6845;278925;-72
2022/12/04 05:27:34;;;;;;;18.05;16.10;;;5.90;51.90;;;;;;20485;6860;309173;-73
2022/12/04 05:29:59;;;;;;;17.07;13.93;;;6.00;51.60;;;;;;20670;6860;118340;-74
2022/12/04 05:32:25;;;;;;;18.90;16.17;;;5.80;51.90;;;;;;20488;6860;309656;-74
2022/12/04 05:34:50;;;;;;;18.40;16.30;;;5.80;52.20;;;;;;20471;6860;278302;-73
2022/12/04 05:37:16;;;;;;;17.67;13.23;;;5.90;51.80;;;;;;20693;6860;117465;-74
2022/12/04 05:39:43;;;;;;;14.33;12.17;;;5.70;52.00;;;;;;20694;6860;117384;-73
2022/12/04 05:42:09;;;;;;;18.63;15.87;;;5.40;52.60;;;;;;20458;6858;308534;-74
2022/12/04 05:44:34;;;;;;;15.10;13.50;;;5.30;52.80;;;;;;20694;6859;117499;-74
2022/12/04 05:47:00;;;;;;;18.42;15.80;;;5.30;53.00;;;;;;20469;6860;311089;-74
2022/12/04 05:49:25;;;;;;;18.05;16.20;;;5.30;53.00;;;;;;20490;6860;322971;-73
2022/12/04 05:51:51;;;;;;;17.07;12.70;;;5.50;52.70;;;;;;20696;6860;117384;-74
2022/12/04 05:54:17;;;;;;;17.27;15.45;;;5.40;52.70;;;;;;20469;6860;433529;-74
2022/12/04 05:56:43;;;;;;;18.23;16.20;;;5.40;52.80;;;;;;20492;6860;281353;-74
2022/12/04 05:59:09;;;;;;;15.50;12.73;;;5.60;52.40;;;;;;20698;6860;117379;-74
2022/12/04 06:01:34;;;;;;;15.02;12.18;;;5.50;52.50;;;;;;20689;6860;117489;-74
2022/12/04 06:04:00;;;;;;;17.47;15.60;;;5.20;53.30;;;;;;20459;6860;327425;-74
2022/12/04 06:06:26;;;;;;;17.33;15.50;;;5.20;53.30;;;;;;20477;6860;311188;-74
2022/12/04 06:08:52;;;;;;;18.20;16.17;;;5.50;52.90;;;;;;20481;6860;279046;-76
2022/12/04 06:11:17;;;;;;;17.33;15.32;;;5.70;52.30;;;;;;20466;6860;278544;-73
2022/12/04 06:13:43;;;;;;;17.87;16.07;;;5.80;51.80;;;;;;20475;6860;278441;-74
2022/12/04 06:16:14;;;;;;;16.17;13.10;;;5.90;51.50;;;;;;20670;6860;120441;-74
2022/12/04 06:18:40;;;;;;;18.35;16.23;;;5.70;51.80;;;;;;20476;6860;279481;-74
2022/12/04 06:21:05;;;;;;;16.13;14.63;;;5.60;52.20;;;;;;20469;6860;338195;-74
2022/12/04 06:23:31;;;;;;;17.20;15.40;;;5.70;52.10;;;;;;20536;6845;308109;-74
2022/12/04 06:25:58;;;;;;;16.05;14.45;;;6.00;51.60;;;;;;20498;6860;279564;-75
2022/12/04 06:28:23;;;;;;;16.83;15.13;;;6.00;51.60;;;;;;20291;6860;309536;-74
2022/12/04 06:30:49;;;;;;;15.15;12.20;;;6.10;51.40;;;;;;20699;6860;117873;-74
2022/12/04 06:33:14;;;;;;;15.82;14.23;;;5.90;51.70;;;;;;20482;6860;320809;-74
2022/12/04 06:35:40;;;;;;;16.93;15.20;;;5.80;52.00;;;;;;20486;6860;308462;-74
2022/12/04 06:38:06;;;;;;;14.25;12.45;;;6.00;51.70;;;;;;20677;6860;117516;-74
2022/12/04 06:40:31;;;;;;;14.50;11.80;;;5.80;51.70;;;;;;20688;6860;117653;-74
2022/12/04 06:42:57;;;;;;;16.37;14.67;;;5.50;52.60;;;;;;20471;6860;309332;-74
2022/12/04 06:45:23;;;;;;;16.80;14.87;;;5.40;52.50;;;;;;20480;6860;291252;-74
2022/12/04 06:47:48;;;;;;;15.02;13.50;;;5.70;52.10;;;;;;20479;6860;311609;-74
2022/12/04 06:50:14;;;;;;;13.20;11.60;;;5.80;51.50;;;;;;20667;6860;117973;-74
2022/12/04 06:52:40;;;;;;;15.10;13.60;;;5.70;51.70;;;;;;20523;6845;337481;-74
2022/12/04 06:55:05;;;;;;;13.17;11.53;;;5.60;51.80;;;;;;20693;6858;118455;-74
2022/12/04 06:57:31;;;;;;;13.30;11.17;;;5.50;52.00;;;;;;20690;6860;117582;-74
2022/12/04 06:59:57;;;;;;;15.23;13.45;;;5.20;53.60;;;;;;20474;6860;306654;-76
2022/12/04 07:02:23;;;;;;;13.80;11.40;;;5.20;52.70;;;;;;20594;6845;118888;-74
2022/12/04 07:04:49;;;;;;;21.47;16.33;;;5.10;52.80;;;;;;20694;6860;117507;-74
2022/12/04 07:07:14;;;;;;;24.83;22.67;;;4.90;53.10;;;;;;20465;6860;310769;-74
2022/12/04 07:09:40;;;;;;;13.50;12.10;;;5.00;53.30;;;;;;20707;6860;118356;-74
2022/12/04 07:12:05;;;;;;;15.63;13.93;;;5.00;53.40;;;;;;20476;6860;309059;-74
2022/12/04 07:14:31;;;;;;;20.73;18.53;;;5.10;53.30;;;;;;20748;6845;117394;-74
2022/12/04 07:16:57;;;;;;;11.50;10.30;;;4.90;53.60;;;;;;20760;6845;117143;-74
2022/12/04 07:19:23;;;;;;;14.87;11.50;;;4.90;53.60;;;;;;20760;6845;117562;-74
2022/12/04 07:21:48;;;;;;;101.62;85.50;;;4.70;54.00;;;;;;20509;6860;312437;-74
2022/12/04 07:24:14;;;;;;;13.68;11.63;;;4.90;53.80;;;;;;20696;6860;127418;-74
2022/12/04 07:26:39;;;;;;;14.43;13.00;;;4.90;53.60;;;;;;20483;6860;338623;-74
2022/12/04 07:29:05;;;;;;;13.10;11.25;;;5.00;53.40;;;;;;20704;6860;118586;-74
2022/12/04 07:31:31;;;;;;;13.13;10.07;;;4.80;53.80;;;;;;20701;6860;117440;-74
2022/12/04 07:33:57;;;;;;;12.27;10.13;;;4.80;53.80;;;;;;20697;6860;117509;-75
2022/12/04 07:36:24;;;;;;;14.17;12.80;;;4.80;54.20;;;;;;20535;6845;297231;-74
2022/12/04 07:38:50;;;;;;;14.13;12.82;;;4.80;54.00;;;;;;20536;6845;338184;-74
2022/12/04 07:41:15;;;;;;;12.05;10.68;;;5.20;53.20;;;;;;20752;6841;117382;-74
2022/12/04 07:43:41;;;;;;;13.07;10.13;;;5.20;53.00;;;;;;20755;6841;117796;-74
2022/12/04 07:46:07;;;;;;;14.07;12.57;;;5.00;53.40;;;;;;20533;6841;280361;-74
2022/12/04 07:48:32;;;;;;;14.13;12.73;;;5.10;53.30;;;;;;20540;6841;278516;-74
2022/12/04 07:51:04;;;;;;;13.60;11.07;;;5.30;52.60;;;;;;20761;6841;120045;-74
2022/12/04 07:53:30;;;;;;;14.67;13.17;;;5.30;52.70;;;;;;20545;6841;279582;-74
2022/12/04 07:55:56;;;;;;;13.57;12.27;;;5.40;52.40;;;;;;20552;6841;277720;-74
2022/12/04 07:58:22;;;;;;;13.63;12.33;;;5.60;52.50;;;;;;20523;6841;280670;-74
2022/12/04 08:00:48;;;;;;;12.63;10.53;;;5.80;51.30;;;;;;20748;6845;118219;-74
2022/12/04 08:03:13;;;;;;;13.80;12.47;;;5.70;51.60;;;;;;20541;6845;279292;-74
2022/12/04 08:05:39;;;;;;;13.63;12.23;;;5.70;51.70;;;;;;20490;6859;310177;-74
2022/12/04 08:08:05;;;;;;;14.50;13.15;;;5.80;52.00;;;;;;20463;6859;280184;-75
2022/12/04 08:10:30;;;;;;;12.37;10.68;;;6.00;51.30;;;;;;20704;6860;118327;-74
2022/12/04 08:12:56;;;;;;;11.50;10.40;;;5.90;51.60;;;;;;20751;6847;117812;-74
2022/12/04 08:15:21;;;;;;;14.43;13.03;;;5.60;52.20;;;;;;20538;6847;307154;-74
2022/12/04 08:17:48;;;;;;;21.27;19.10;;;5.70;52.30;;;;;;20544;6848;307157;-74
2022/12/04 08:20:14;;;;;;;13.85;12.60;;;5.90;51.50;;;;;;20480;6860;339009;-74
2022/12/04 08:22:40;;;;;;;11.93;10.73;;;6.10;51.00;;;;;;20706;6860;117540;-74
2022/12/04 08:25:05;;;;;;;11.48;10.35;;;6.00;51.30;;;;;;20743;6848;117660;-74
2022/12/04 08:27:32;;;;;;;11.23;10.03;;;5.70;51.90;;;;;;20736;6848;117294;-74
2022/12/04 08:29:58;;;;;;;11.97;10.13;;;5.50;52.50;;;;;;20718;6848;117749;-76
2022/12/04 08:32:23;;;;;;;13.23;11.93;;;5.30;53.00;;;;;;20412;6854;310099;-74
2022/12/04 08:34:50;;;;;;;20.60;18.35;;;5.40;52.80;;;;;;20745;6839;117245;-74
2022/12/04 08:37:15;;;;;;;14.07;11.17;;;5.40;52.70;;;;;;20764;6839;117660;-73
2022/12/04 08:39:41;;;;;;;15.50;13.97;;;5.20;53.00;;;;;;20555;6839;306585;-74
2022/12/04 08:42:06;;;;;;;15.33;13.83;;;5.30;53.00;;;;;;20542;6839;280977;-74
2022/12/04 08:44:32;;;;;;;14.57;13.27;;;5.70;52.50;;;;;;20546;6839;336659;-74
2022/12/04 08:46:57;;;;;;;12.07;10.90;;;6.00;52.10;;;;;;20720;6855;117426;-73
2022/12/04 08:49:23;;;;;;;13.93;12.30;;;5.90;52.00;;;;;;20772;6839;117829;-74
2022/12/04 08:51:49;;;;;;;12.33;11.20;;;5.70;52.50;;;;;;20768;6839;117700;-74
2022/12/04 08:54:14;;;;;;;17.37;15.67;;;5.40;53.00;;;;;;20537;6839;304045;-74
2022/12/04 08:56:40;;;;;;;11.37;10.27;;;5.50;52.70;;;;;;20768;6839;117439;-74
2022/12/04 08:59:05;;;;;;;17.13;15.50;;;5.60;52.60;;;;;;20557;6839;307611;-74
2022/12/04 09:01:32;;;;;;;13.70;12.33;;;5.70;52.30;;;;;;20767;6839;121290;-74
2022/12/04 09:03:58;;;;;;;12.50;11.20;;;5.70;52.40;;;;;;20754;6839;120841;-75
2022/12/04 09:06:23;;;;;;;16.58;14.93;;;5.50;52.70;;;;;;20562;6839;307146;-74
2022/12/04 09:08:53;;;;;;;12.55;11.25;;;5.60;52.80;;;;;;20771;6839;117277;-74
2022/12/04 09:11:18;;;;;;;14.60;11.07;;;5.60;53.50;;;;;;20771;6839;117227;-73
2022/12/04 09:13:43;;;;;;;14.68;13.18;;;5.50;53.30;;;;;;20553;6839;277638;-74
2022/12/04 09:16:09;;;;;;;13.57;10.63;;;5.60;53.00;;;;;;20753;6837;117321;-74
2022/12/04 09:18:34;;;;;;;15.32;13.82;;;5.60;53.00;;;;;;20562;6838;279469;-74
2022/12/04 09:21:00;;;;;;;17.13;15.37;;;5.70;52.70;;;;;;20567;6838;288526;-74
2022/12/04 09:23:25;;;;;;;15.70;14.10;;;6.00;52.10;;;;;;20562;6838;310408;-74
2022/12/04 09:25:53;;;;;;;17.33;15.52;;;6.40;51.90;;;;;;20563;6838;277513;-74
2022/12/04 09:28:19;;;;;;;18.45;16.50;;;6.40;51.10;;;;;;20542;6838;309250;-74
2022/12/04 09:30:44;;;;;;;14.77;11.57;;;6.50;50.80;;;;;;20775;6838;117200;-74
2022/12/04 09:33:10;;;;;;;14.17;12.73;;;6.30;51.50;;;;;;20569;6838;277507;-74
2022/12/04 09:35:39;;;;;;;13.98;12.68;;;6.30;51.50;;;;;;20554;6838;305718;-74
2022/12/04 09:38:05;;;;;;;19.48;17.55;;;6.50;51.10;;;;;;20538;6839;278480;-74
2022/12/04 09:40:34;;;;;;;15.23;13.73;;;6.70;50.70;;;;;;20557;6839;339222;-74
2022/12/04 09:43:13;;;;;;;14.87;10.93;;;6.80;50.70;;;;;;20755;6839;121323;-74
2022/12/04 09:45:39;;;;;;;15.40;13.80;;;6.60;51.40;;;;;;20560;6839;307987;-74
2022/12/04 09:48:05;;;;;;;14.23;11.30;;;6.50;51.20;;;;;;20726;6839;144511;-74
2022/12/04 09:50:33;;;;;;;16.33;14.40;;;6.40;51.50;;;;;;20538;6839;307139;-74
2022/12/04 09:53:09;;;;;;;14.77;12.03;;;6.50;51.70;;;;;;20753;6839;117255;-74
2022/12/04 09:55:42;;;;;;;15.83;14.10;;;6.40;52.10;;;;;;20543;6839;326997;-74
2022/12/04 09:58:18;;;;;;;15.87;12.50;;;6.40;52.10;;;;;;20756;6839;117281;-74
2022/12/04 10:00:43;;;;;;;16.25;14.48;;;6.30;52.20;;;;;;20126;6839;310989;-74
2022/12/04 10:03:12;;;;;;;17.27;15.00;;;6.40;52.30;;;;;;20552;6839;308032;-76
2022/12/04 10:06:05;;;;;;;17.98;15.38;;;6.80;51.90;;;;;;20564;6839;309058;-74
2022/12/04 10:08:31;;;;;;;17.70;15.80;;;6.70;51.80;;;;;;20570;6839;308975;-73
2022/12/04 10:11:00;;;;;;;15.63;13.10;;;7.00;51.60;;;;;;20769;6839;117630;-73
2022/12/04 10:13:39;;;;;;;16.55;14.75;;;6.70;52.20;;;;;;20551;6839;322747;-73
2022/12/04 10:16:22;;;;;;;17.57;13.20;;;6.60;52.10;;;;;;20337;6839;119977;-73
2022/12/04 10:19:13;;;;;;;15.63;12.00;;;6.50;52.40;;;;;;20770;6839;120455;-73
2022/12/04 10:22:19;;;;;;;18.70;15.80;;;6.20;52.90;;;;;;20562;6839;308282;-73
2022/12/04 10:24:51;;;;;;;17.77;15.40;;;6.20;52.90;;;;;;20562;6839;283135;-73
2022/12/04 10:27:27;;;;;;;14.43;12.27;;;6.50;52.50;;;;;;20765;6839;117253;-73
2022/12/04 10:30:03;;;;;;;16.58;14.65;;;6.30;52.50;;;;;;20562;6837;307223;-73
2022/12/04 10:32:28;;;;;;;14.57;11.63;;;6.30;52.70;;;;;;20764;6838;117329;-73
2022/12/04 10:34:54;;;;;;;15.47;12.20;;;6.20;53.00;;;;;;20770;6838;117592;-73
2022/12/04 10:37:20;;;;;;;15.70;14.10;;;5.90;53.50;;;;;;20562;6838;278056;-73
2022/12/04 10:40:01;;;;;;;16.03;14.30;;;6.10;54.20;;;;;;20561;6838;309248;-73
2022/12/04 10:42:30;;;;;;;16.80;13.30;;;6.30;53.70;;;;;;20761;6838;118074;-73
2022/12/04 10:44:55;;;;;;;17.23;15.03;;;6.30;53.60;;;;;;20547;6838;287511;-73
2022/12/04 10:47:23;;;;;;;17.48;15.18;;;6.50;52.80;;;;;;20554;6838;277613;-75
2022/12/04 10:49:47;;;;;;;21.90;16.73;;;6.50;52.80;;;;;;20551;6839;306446;-73
2022/12/04 10:52:13;;;;;;;16.73;13.27;;;6.70;52.50;;;;;;20752;6839;117232;-73
2022/12/04 10:54:47;;;;;;;18.50;15.82;;;6.50;52.50;;;;;;20566;6839;291965;-72
2022/12/04 10:57:11;;;;;;;20.70;17.27;;;6.50;52.90;;;;;;20547;6839;309783;-73
2022/12/04 10:59:54;;;;;;;19.00;13.87;;;6.60;53.60;;;;;;20765;6839;117792;-73
2022/12/04 11:02:29;;;;;;;14.80;12.80;;;6.50;52.90;;;;;;20747;6839;117488;-73
2022/12/04 11:05:01;;;;;;;22.20;16.70;;;5.90;54.00;;;;;;20754;6839;117331;-73
2022/12/04 11:07:27;;;;;;;22.48;19.62;;;5.90;53.90;;;;;;20548;6839;339309;-73
2022/12/04 11:10:02;;;;;;;24.20;17.48;;;5.90;53.80;;;;;;20763;6839;117541;-73
2022/12/04 11:12:26;;;;;;;21.27;15.00;;;5.60;54.10;;;;;;20759;6839;117426;-73
2022/12/04 11:15:05;;;;;;;23.40;18.12;;;5.70;55.10;;;;;;20555;6840;307746;-73
2022/12/04 11:17:31;;;;;;;22.67;18.65;;;5.70;55.10;;;;;;20537;6839;307545;-73
2022/12/04 11:20:03;;;;;;;24.05;20.17;;;6.00;54.80;;;;;;20569;6839;336641;-73
2022/12/04 11:22:29;;;;;;;25.33;16.37;;;6.20;54.40;;;;;;20770;6839;119618;-73
2022/12/04 11:24:54;;;;;;;23.57;18.30;;;6.10;54.50;;;;;;20566;6839;314254;-73
2022/12/04 11:27:20;;;;;;;24.42;19.05;;;6.10;55.00;;;;;;20553;6839;307025;-73
2022/12/04 11:29:45;;;;;;;18.07;15.07;;;6.30;54.70;;;;;;20758;6839;117427;-73
2022/12/04 11:32:24;;;;;;;19.40;14.67;;;6.30;54.70;;;;;;20750;6839;117457;-73
2022/12/04 11:34:50;;;;;;;21.10;17.67;;;6.00;55.00;;;;;;20554;6839;280333;-73
2022/12/04 11:37:21;;;;;;;40.72;28.83;;;6.00;54.60;;;;;;20768;6839;117291;-73
2022/12/04 11:39:47;;;;;;;20.48;17.35;;;6.00;54.60;;;;;;20543;6837;307408;-73
2022/12/04 11:42:23;;;;;;;21.30;17.98;;;6.30;54.50;;;;;;20545;6838;306968;-73
2022/12/04 11:44:59;;;;;;;19.23;17.23;;;6.30;54.60;;;;;;20564;6838;277633;-72
2022/12/04 11:47:25;;;;;;;21.77;17.90;;;6.50;53.70;;;;;;20562;6838;311699;-73
2022/12/04 11:50:11;;;;;;;20.87;15.33;;;6.70;53.10;;;;;;20765;6838;121204;-73
2022/12/04 11:52:57;;;;;;;17.57;13.60;;;6.50;53.20;;;;;;20749;6838;117866;-74
2022/12/04 11:55:24;;;;;;;25.57;23.07;;;6.20;53.90;;;;;;20539;6838;310096;-72
2022/12/04 11:58:10;;;;;;;41.17;36.80;;;6.20;54.00;;;;;;20759;6838;117227;-73
2022/12/04 12:00:37;;;;;;;21.37;19.07;;;6.20;54.00;;;;;;20536;6839;310912;-73
2022/12/04 12:03:03;;;;;;;19.73;14.60;;;6.20;54.00;;;;;;20753;6839;119806;-73
2022/12/04 12:05:28;;;;;;;21.10;17.73;;;6.10;54.00;;;;;;20397;6839;278389;-73
2022/12/04 12:08:10;;;;;;;21.30;17.23;;;6.20;54.00;;;;;;20743;6839;117150;-73
2022/12/04 12:11:02;;;;;;;22.07;18.23;;;6.10;54.00;;;;;;20536;6839;306696;-72
2022/12/04 12:13:51;;;;;;;17.17;13.17;;;6.20;54.20;;;;;;20770;6839;117626;-72
2022/12/04 12:16:27;;;;;;;18.70;14.50;;;6.10;54.20;;;;;;20753;6839;117848;-72
2022/12/04 12:19:29;;;;;;;16.67;12.90;;;5.80;54.60;;;;;;20733;6839;117836;-73
2022/12/04 12:22:07;;;;;;;16.17;13.00;;;5.70;55.30;;;;;;20773;6839;118180;-73
2022/12/04 12:24:49;;;;;;;20.23;17.63;;;5.50;55.70;;;;;;20533;6839;307284;-73
2022/12/04 12:27:28;;;;;;;24.33;16.03;;;5.70;55.70;;;;;;20408;6839;117892;-73
2022/12/04 12:30:00;;;;;;;18.30;13.90;;;5.70;55.30;;;;;;20755;6839;117851;-73
2022/12/04 12:32:42;;;;;;;20.35;16.67;;;5.60;55.70;;;;;;20546;6839;338836;-73
2022/12/04 12:35:15;;;;;;;41.83;26.13;;;6.20;54.60;;;;;;19536;7178;320567;-73
2022/12/04 12:37:40;;;;;;;41.95;36.55;;;6.20;54.50;;;;;;20513;6839;277618;-75
2022/12/04 12:40:25;;;;;;;26.75;23.75;;;6.40;53.60;;;;;;20513;6839;319777;-73
2022/12/04 12:42:51;;;;;;;21.47;15.43;;;6.70;53.30;;;;;;20754;6839;117556;-72